createdAt,value
2022-08-20T00:04:05.944Z,18.02
2022-08-20T00:05:18.347Z,18.02
2022-08-20T00:06:25.519Z,18.01
2022-08-20T00:07:30.498Z,18.01
2022-08-20T00:08:34.658Z,18.02
2022-08-20T00:09:40.290Z,18.02
2022-08-20T00:10:55.586Z,18.04
2022-08-20T00:12:08.576Z,18.04
2022-08-20T00:13:26.602Z,18.08
2022-08-20T00:17:35.355Z,18.06
2022-08-20T00:20:10.633Z,18.06
2022-08-20T00:21:19.029Z,18.05
2022-08-20T00:22:14.702Z,18.08
2022-08-20T00:37:17.479Z,18.01
2022-08-20T00:38:28.616Z,18.01
2022-08-20T00:39:40.347Z,18.02
2022-08-20T00:41:00.358Z,18.08
2022-08-20T00:42:05.178Z,18.08
2022-08-20T00:43:25.522Z,18.10
2022-08-20T00:44:31.507Z,18.13
2022-08-20T00:45:36.597Z,18.13
2022-08-20T00:46:45.181Z,18.11
2022-08-20T00:47:51.513Z,18.12
2022-08-20T00:48:57.352Z,18.11
2022-08-20T00:50:01.547Z,18.13
2022-08-20T00:51:11.140Z,18.13
2022-08-20T00:52:18.147Z,18.14
2022-08-20T00:53:31.566Z,18.15
2022-08-20T00:54:35.855Z,18.13
2022-08-20T00:55:41.985Z,18.14
2022-08-20T00:56:48.635Z,18.14
2022-08-20T00:58:01.443Z,18.14
2022-08-20T00:59:03.418Z,18.13
2022-08-20T01:00:12.180Z,18.11
2022-08-20T01:01:20.690Z,18.11
2022-08-20T01:02:27.358Z,18.07
2022-08-20T01:03:31.763Z,18.06
2022-08-20T01:04:37.982Z,18.02
2022-08-20T01:05:44.992Z,18.02
2022-08-20T01:06:49.640Z,17.99
2022-08-20T01:07:55.577Z,17.97
2022-08-20T01:09:01.260Z,17.93
2022-08-20T01:10:20.490Z,17.93
2022-08-20T01:11:25.869Z,17.93
2022-08-20T01:12:30.878Z,17.93
2022-08-20T01:13:37.681Z,17.96
2022-08-20T01:14:45.458Z,17.96
2022-08-20T01:15:52.036Z,17.97
2022-08-20T01:16:59.092Z,17.95
2022-08-20T01:18:03.908Z,17.96
2022-08-20T01:19:29.222Z,17.97
2022-08-20T01:20:27.433Z,17.99
2022-08-20T01:21:31.840Z,17.98
2022-08-20T01:22:42.784Z,17.94
2022-08-20T01:24:13.851Z,17.94
2022-08-20T01:25:32.803Z,17.94
2022-08-20T01:26:43.268Z,17.90
2022-08-20T01:34:46.557Z,17.70
2022-08-20T01:35:51.597Z,17.75
2022-08-20T01:36:58.278Z,17.71
2022-08-20T01:38:02.299Z,17.73
2022-08-20T01:39:09.189Z,17.68
2022-08-20T01:40:17.709Z,17.68
2022-08-20T01:41:30.905Z,17.58
2022-08-20T01:42:52.727Z,17.57
2022-08-20T01:43:49.234Z,17.56
2022-08-20T01:44:55.035Z,17.53
2022-08-20T01:45:59.178Z,17.53
2022-08-20T01:47:15.905Z,17.52
2022-08-20T01:48:20.324Z,17.52
2022-08-20T01:49:32.926Z,17.44
2022-08-20T01:50:41.438Z,17.44
2022-08-20T01:51:47.300Z,17.44
2022-08-20T01:53:10.807Z,17.45
2022-08-20T01:54:14.896Z,17.36
2022-08-20T01:55:19.094Z,17.37
2022-08-20T01:56:29.947Z,17.32
2022-08-20T01:57:34.953Z,17.32
2022-08-20T01:58:43.336Z,17.33
2022-08-20T01:59:52.580Z,17.38
2022-08-20T02:01:00.251Z,17.41
2022-08-20T02:02:05.538Z,17.45
2022-08-20T02:03:11.200Z,17.42
2022-08-20T02:04:16.194Z,17.42
2022-08-20T02:05:20.804Z,17.37
2022-08-20T02:06:27.230Z,17.34
2022-08-20T02:07:31.319Z,17.34
2022-08-20T02:08:35.301Z,17.32
2022-08-20T02:09:39.835Z,17.32
2022-08-20T02:10:43.986Z,17.34
2022-08-20T02:11:48.193Z,17.37
2022-08-20T02:12:53.100Z,17.37
2022-08-20T02:13:57.888Z,17.33
2022-08-20T02:15:02.592Z,17.34
2022-08-20T02:16:08.587Z,17.34
2022-08-20T02:17:14.588Z,17.31
2022-08-20T02:18:18.830Z,17.31
2022-08-20T02:19:25.825Z,17.30
2022-08-20T02:20:31.341Z,17.30
2022-08-20T02:21:40.789Z,17.30
2022-08-20T02:22:53.768Z,17.35
2022-08-20T02:24:07.427Z,17.40
2022-08-20T02:25:09.349Z,17.42
2022-08-20T02:26:14.157Z,17.45
2022-08-20T02:27:18.286Z,17.48
2022-08-20T02:28:22.343Z,17.46
2022-08-20T02:29:26.487Z,17.50
2022-08-20T02:30:34.594Z,17.50
2022-08-20T02:32:23.564Z,17.56
2022-08-20T02:32:46.636Z,17.64
2022-08-20T02:34:22.459Z,17.63
2022-08-20T02:34:56.894Z,17.64
2022-08-20T02:36:00.869Z,17.66
2022-08-20T02:37:07.164Z,17.67
2022-08-20T02:38:11.798Z,17.67
2022-08-20T02:39:16.330Z,17.67
2022-08-20T02:40:30.180Z,17.63
2022-08-20T02:41:29.094Z,17.64
2022-08-20T02:42:36.765Z,17.60
2022-08-20T02:43:40.935Z,17.59
2022-08-20T02:44:48.301Z,17.59
2022-08-20T02:45:52.340Z,17.54
2022-08-20T02:46:57.134Z,17.54
2022-08-20T02:48:01.191Z,17.53
2022-08-20T02:49:08.418Z,17.56
2022-08-20T02:50:16.083Z,17.56
2022-08-20T02:51:20.088Z,17.59
2022-08-20T02:52:26.217Z,17.59
2022-08-20T02:53:32.976Z,17.59
2022-08-20T02:54:37.128Z,17.61
2022-08-20T02:55:41.283Z,17.61
2022-08-20T02:56:47.639Z,17.68
2022-08-20T02:57:54.465Z,17.68
2022-08-20T02:59:00.027Z,17.65
2022-08-20T03:00:06.451Z,17.66
2022-08-20T03:01:13.624Z,17.66
2022-08-20T03:02:17.849Z,17.69
2022-08-20T03:03:21.952Z,17.69
2022-08-20T03:04:26.153Z,17.64
2022-08-20T03:05:30.339Z,17.66
2022-08-20T03:06:34.957Z,17.65
2022-08-20T03:07:44.833Z,17.66
2022-08-20T03:08:50.923Z,17.64
2022-08-20T03:09:54.934Z,17.65
2022-08-20T03:10:59.885Z,17.65
2022-08-20T03:12:05.218Z,17.61
2022-08-20T03:13:09.524Z,17.61
2022-08-20T03:14:13.874Z,17.61
2022-08-20T03:15:18.040Z,16.84
2022-08-20T03:16:23.924Z,17.65
2022-08-20T03:17:27.979Z,17.65
2022-08-20T03:18:35.334Z,17.61
2022-08-20T03:19:39.469Z,17.53
2022-08-20T03:20:46.097Z,17.60
2022-08-20T03:21:50.629Z,17.61
2022-08-20T03:22:56.356Z,17.61
2022-08-20T03:24:01.713Z,17.67
2022-08-20T03:25:07.134Z,17.67
2022-08-20T03:26:13.462Z,17.65
2022-08-20T03:27:17.454Z,17.65
2022-08-20T03:28:23.253Z,17.60
2022-08-20T03:29:27.230Z,17.52
2022-08-20T03:30:33.138Z,17.52
2022-08-20T03:31:37.678Z,17.51
2022-08-20T03:32:42.723Z,17.51
2022-08-20T03:33:52.736Z,17.56
2022-08-20T03:34:54.333Z,17.64
2022-08-20T03:35:58.679Z,17.67
2022-08-20T03:37:03.254Z,17.72
2022-08-20T03:38:09.623Z,17.78
2022-08-20T03:39:14.142Z,17.79
2022-08-20T03:40:22.921Z,17.83
2022-08-20T03:41:27.434Z,17.83
2022-08-20T03:42:31.551Z,17.90
2022-08-20T03:43:36.987Z,17.93
2022-08-20T03:44:43.256Z,17.93
2022-08-20T03:45:47.368Z,17.98
2022-08-20T03:46:56.073Z,17.98
2022-08-20T03:47:59.882Z,17.98
2022-08-20T03:49:08.348Z,18.04
2022-08-20T03:50:22.781Z,18.07
2022-08-20T03:51:19.924Z,18.10
2022-08-20T03:52:26.443Z,18.11
2022-08-20T03:53:32.045Z,18.11
2022-08-20T03:54:37.647Z,18.09
2022-08-20T03:55:43.376Z,18.09
2022-08-20T03:56:50.695Z,18.11
2022-08-20T03:59:07.563Z,18.13
2022-08-20T04:00:13.281Z,18.19
2022-08-20T04:01:44.613Z,18.23
2022-08-20T04:02:23.778Z,18.30
2022-08-20T04:03:27.823Z,18.30
2022-08-20T04:04:31.967Z,18.40
2022-08-20T04:05:38.468Z,18.44
2022-08-20T04:06:46.132Z,18.46
2022-08-20T04:08:05.030Z,18.49
2022-08-20T04:09:12.343Z,18.49
2022-08-20T04:10:18.540Z,18.56
2022-08-20T04:11:22.704Z,18.56
2022-08-20T04:12:27.237Z,18.59
2022-08-20T04:13:33.165Z,18.60
2022-08-20T04:14:38.641Z,18.64
2022-08-20T04:15:47.176Z,18.62
2022-08-20T04:16:53.019Z,18.62
2022-08-20T04:17:57.334Z,18.59
2022-08-20T04:19:02.802Z,18.55
2022-08-20T04:20:10.345Z,18.53
2022-08-20T04:21:15.363Z,18.50
2022-08-20T04:22:19.739Z,18.49
2022-08-20T04:23:24.031Z,18.47
2022-08-20T04:24:32.318Z,18.46
2022-08-20T04:25:37.471Z,18.46
2022-08-20T04:26:44.679Z,18.46
2022-08-20T04:27:49.404Z,18.49
2022-08-20T04:29:04.558Z,18.56
2022-08-20T04:30:01.425Z,18.56
2022-08-20T04:31:05.498Z,18.63
2022-08-20T04:32:11.273Z,18.67
2022-08-20T04:33:15.324Z,18.67
2022-08-20T04:34:22.346Z,18.75
2022-08-20T04:35:28.633Z,18.80
2022-08-20T04:36:33.020Z,18.88
2022-08-20T04:37:37.184Z,18.88
2022-08-20T04:38:49.979Z,18.94
2022-08-20T04:39:49.570Z,19.10
2022-08-20T04:41:06.999Z,19.18
2022-08-20T04:42:01.548Z,19.23
2022-08-20T04:43:07.735Z,19.23
2022-08-20T04:44:12.314Z,19.34
2022-08-20T04:45:16.272Z,19.39
2022-08-20T04:46:24.201Z,19.43
2022-08-20T04:47:34.627Z,19.51
2022-08-20T04:48:38.303Z,19.51
2022-08-20T04:49:43.959Z,19.58
2022-08-20T04:50:50.201Z,19.58
2022-08-20T04:51:54.942Z,19.69
2022-08-20T04:52:59.005Z,19.69
2022-08-20T04:54:03.330Z,19.77
2022-08-20T04:55:08.041Z,19.84
2022-08-20T04:56:12.466Z,19.94
2022-08-20T04:57:19.087Z,20.01
2022-08-20T04:58:26.151Z,20.01
2022-08-20T04:59:33.726Z,20.18
2022-08-20T05:00:38.151Z,20.18
2022-08-20T05:02:15.463Z,20.34
2022-08-20T05:02:54.448Z,20.46
2022-08-20T05:03:59.348Z,20.56
2022-08-20T05:05:03.378Z,20.62
2022-08-20T05:06:10.369Z,20.62
2022-08-20T05:07:16.374Z,20.87
2022-08-20T05:08:21.995Z,20.87
2022-08-20T05:09:26.201Z,20.95
2022-08-20T05:10:31.242Z,20.92
2022-08-20T05:11:36.904Z,20.92
2022-08-20T05:12:42.934Z,21.35
2022-08-20T05:13:48.947Z,21.71
2022-08-20T05:14:56.773Z,21.71
2022-08-20T05:16:02.596Z,21.95
2022-08-20T05:17:06.786Z,21.95
2022-08-20T05:18:10.832Z,22.05
2022-08-20T05:19:16.501Z,22.09
2022-08-20T05:20:21.216Z,22.16
2022-08-20T05:21:29.670Z,22.24
2022-08-20T05:22:35.886Z,22.24
2022-08-20T05:23:48.581Z,22.43
2022-08-20T05:24:52.680Z,22.43
2022-08-20T05:25:56.913Z,22.36
2022-08-20T05:27:03.380Z,22.36
2022-08-20T05:28:10.469Z,22.37
2022-08-20T05:29:22.418Z,22.40
2022-08-20T05:30:28.757Z,22.40
2022-08-20T05:31:35.448Z,22.53
2022-08-20T05:32:44.495Z,22.58
2022-08-20T05:33:45.681Z,22.66
2022-08-20T05:34:51.287Z,22.65
2022-08-20T05:36:46.882Z,22.75
2022-08-20T05:37:06.271Z,22.75
2022-08-20T05:38:15.396Z,22.72
2022-08-20T05:39:22.129Z,22.75
2022-08-20T05:40:28.539Z,22.75
2022-08-20T05:41:32.564Z,22.83
2022-08-20T05:43:46.535Z,22.69
2022-08-20T05:44:11.800Z,22.56
2022-08-20T05:45:16.859Z,22.56
2022-08-20T05:46:21.671Z,22.47
2022-08-20T05:47:27.529Z,22.47
2022-08-20T05:48:31.513Z,22.47
2022-08-20T05:49:35.647Z,22.34
2022-08-20T05:50:41.908Z,22.27
2022-08-20T05:51:46.109Z,22.26
2022-08-20T05:52:51.478Z,22.26
2022-08-20T05:53:59.195Z,22.02
2022-08-20T05:55:01.289Z,21.96
2022-08-20T05:56:05.726Z,21.96
2022-08-20T05:57:19.372Z,21.93
2022-08-20T05:58:26.002Z,21.93
2022-08-20T05:59:29.986Z,22.06
2022-08-20T06:00:35.846Z,22.06
2022-08-20T06:01:40.703Z,22.13
2022-08-20T06:02:44.872Z,22.07
2022-08-20T06:03:49.181Z,22.07
2022-08-20T06:04:56.118Z,21.99
2022-08-20T06:05:59.739Z,21.92
2022-08-20T06:07:06.442Z,21.92
2022-08-20T06:08:12.532Z,21.93
2022-08-20T06:09:31.172Z,22.24
2022-08-20T06:10:26.214Z,22.24
2022-08-20T06:11:37.409Z,22.50
2022-08-20T06:14:12.486Z,22.84
2022-08-20T06:15:16.513Z,23.17
2022-08-20T06:16:22.232Z,23.17
2022-08-20T06:17:34.849Z,23.25
2022-08-20T06:18:42.917Z,23.34
2022-08-20T06:19:47.393Z,23.34
2022-08-20T06:20:53.329Z,23.28
2022-08-20T06:22:17.987Z,23.19
2022-08-20T06:23:06.449Z,23.00
2022-08-20T06:24:12.138Z,23.00
2022-08-20T06:25:18.241Z,23.00
2022-08-20T06:26:30.856Z,22.97
2022-08-20T06:27:46.777Z,22.97
2022-08-20T06:28:50.713Z,22.95
2022-08-20T06:29:56.541Z,23.23
2022-08-20T06:31:03.041Z,23.39
2022-08-20T06:32:07.295Z,23.39
2022-08-20T06:33:12.794Z,23.73
2022-08-20T06:34:18.338Z,23.93
2022-08-20T06:35:24.179Z,23.93
2022-08-20T06:36:49.430Z,24.11
2022-08-20T06:37:42.348Z,24.22
2022-08-20T06:38:49.437Z,24.32
2022-08-20T06:39:56.156Z,24.58
2022-08-20T06:41:01.550Z,24.58
2022-08-20T06:42:05.732Z,24.71
2022-08-20T06:43:11.798Z,24.84
2022-08-20T06:44:19.601Z,24.91
2022-08-20T06:45:28.116Z,24.99
2022-08-20T06:46:32.437Z,24.99
2022-08-20T06:47:39.419Z,25.01
2022-08-20T06:48:43.506Z,24.88
2022-08-20T06:49:49.595Z,24.88
2022-08-20T06:50:54.148Z,24.88
2022-08-20T06:51:59.840Z,24.90
2022-08-20T06:53:06.456Z,24.78
2022-08-20T06:54:10.794Z,24.73
2022-08-20T06:55:17.297Z,24.73
2022-08-20T06:56:22.337Z,24.58
2022-08-20T06:57:26.383Z,24.55
2022-08-20T06:58:38.914Z,24.54
2022-08-20T06:59:39.274Z,24.57
2022-08-20T07:00:46.481Z,24.63
2022-08-20T07:01:50.533Z,24.72
2022-08-20T07:02:54.846Z,24.80
2022-08-20T07:03:58.910Z,24.98
2022-08-20T07:05:05.843Z,25.13
2022-08-20T07:06:10.656Z,25.33
2022-08-20T07:07:20.858Z,25.33
2022-08-20T07:08:26.343Z,25.38
2022-08-20T07:09:31.812Z,25.43
2022-08-20T07:10:37.331Z,25.41
2022-08-20T07:11:41.636Z,25.35
2022-08-20T07:12:46.083Z,25.26
2022-08-20T07:13:51.348Z,25.26
2022-08-20T07:14:55.538Z,25.32
2022-08-20T07:15:59.612Z,25.32
2022-08-20T07:17:05.015Z,25.26
2022-08-20T07:18:12.827Z,25.23
2022-08-20T07:19:17.073Z,25.30
2022-08-20T07:20:25.330Z,25.36
2022-08-20T07:21:29.336Z,25.36
2022-08-20T07:22:35.049Z,25.27
2022-08-20T07:23:41.029Z,25.27
2022-08-20T07:24:48.998Z,25.46
2022-08-20T07:25:50.721Z,25.53
2022-08-20T07:26:56.924Z,25.53
2022-08-20T07:28:05.334Z,25.63
2022-08-20T07:29:09.399Z,25.79
2022-08-20T07:30:16.594Z,25.79
2022-08-20T07:31:22.265Z,25.90
2022-08-20T07:32:28.956Z,25.76
2022-08-20T07:33:33.865Z,25.76
2022-08-20T07:34:38.306Z,25.83
2022-08-20T07:35:47.182Z,25.77
2022-08-20T07:36:51.313Z,25.55
2022-08-20T07:37:55.380Z,25.46
2022-08-20T07:39:00.862Z,25.43
2022-08-20T07:40:10.810Z,25.30
2022-08-20T07:42:44.445Z,25.12
2022-08-20T07:43:14.072Z,25.30
2022-08-20T07:44:04.779Z,25.06
2022-08-20T07:45:02.742Z,25.06
2022-08-20T07:46:10.867Z,25.00
2022-08-20T07:47:16.368Z,25.00
2022-08-20T07:48:31.127Z,24.97
2022-08-20T07:49:28.516Z,25.01
2022-08-20T07:50:33.646Z,25.09
2022-08-20T07:51:37.613Z,25.14
2022-08-20T07:52:41.654Z,25.14
2022-08-20T07:53:47.771Z,25.29
2022-08-20T07:54:53.353Z,25.29
2022-08-20T07:55:59.049Z,25.31
2022-08-20T07:57:03.896Z,25.31
2022-08-20T07:58:10.850Z,25.21
2022-08-20T07:59:14.826Z,25.21
2022-08-20T08:00:23.191Z,25.25
2022-08-20T08:01:30.547Z,25.34
2022-08-20T08:02:36.842Z,25.34
2022-08-20T08:03:50.142Z,25.51
2022-08-20T08:04:48.056Z,25.18
2022-08-20T08:05:52.181Z,25.18
2022-08-20T08:06:56.805Z,25.56
2022-08-20T08:08:02.835Z,25.66
2022-08-20T08:09:10.240Z,25.68
2022-08-20T08:10:18.822Z,25.68
2022-08-20T08:11:24.174Z,25.64
2022-08-20T08:12:32.775Z,25.64
2022-08-20T08:13:39.793Z,25.64
2022-08-20T08:14:46.342Z,25.71
2022-08-20T08:15:51.469Z,25.71
2022-08-20T08:16:58.718Z,25.94
2022-08-20T08:18:11.990Z,26.04
2022-08-20T08:19:18.159Z,26.04
2022-08-20T08:20:25.294Z,26.08
2022-08-20T08:21:30.491Z,26.14
2022-08-20T08:22:34.707Z,26.13
2022-08-20T08:23:40.262Z,26.26
2022-08-20T08:24:56.860Z,26.24
2022-08-20T08:25:52.425Z,26.30
2022-08-20T08:26:57.262Z,26.30
2022-08-20T08:28:01.322Z,26.19
2022-08-20T08:29:05.434Z,26.17
2022-08-20T08:30:11.606Z,26.17
2022-08-20T08:31:16.231Z,26.19
2022-08-20T08:32:20.256Z,26.17
2022-08-20T08:33:30.105Z,26.19
2022-08-20T08:34:36.067Z,26.12
2022-08-20T08:35:42.161Z,26.00
2022-08-20T08:36:46.869Z,26.00
2022-08-20T08:37:58.077Z,26.02
2022-08-20T08:38:56.840Z,26.02
2022-08-20T08:40:01.177Z,26.01
2022-08-20T08:41:19.420Z,25.09
2022-08-20T08:42:26.407Z,25.75
2022-08-20T08:43:32.042Z,25.72
2022-08-20T08:44:39.299Z,25.74
2022-08-20T08:45:46.276Z,25.74
2022-08-20T08:46:54.872Z,25.72
2022-08-20T08:47:59.037Z,25.71
2022-08-20T08:49:06.691Z,25.71
2022-08-20T08:50:13.931Z,25.73
2022-08-20T08:51:24.398Z,25.79
2022-08-20T08:52:31.811Z,25.91
2022-08-20T08:53:39.262Z,26.00
2022-08-20T08:54:46.286Z,26.00
2022-08-20T08:55:50.404Z,25.77
2022-08-20T08:56:55.625Z,25.77
2022-08-20T08:58:06.416Z,25.74
2022-08-20T08:59:08.777Z,25.74
2022-08-20T09:00:16.652Z,25.72
2022-08-20T09:01:55.095Z,25.64
2022-08-20T09:02:31.206Z,25.65
2022-08-20T09:03:42.044Z,25.65
2022-08-20T09:04:46.340Z,25.78
2022-08-20T09:05:59.442Z,25.94
2022-08-20T09:07:06.300Z,25.94
2022-08-20T09:08:16.825Z,26.07
2022-08-20T09:09:21.837Z,26.20
2022-08-20T09:10:27.773Z,26.34
2022-08-20T09:11:35.279Z,26.24
2022-08-20T09:12:40.862Z,26.31
2022-08-20T09:13:45.419Z,26.30
2022-08-20T09:14:52.526Z,26.40
2022-08-20T09:15:58.009Z,26.39
2022-08-20T09:17:03.686Z,26.39
2022-08-20T09:18:11.960Z,26.52
2022-08-20T09:19:16.028Z,26.54
2022-08-20T09:20:27.030Z,26.81
2022-08-20T09:21:27.366Z,26.90
2022-08-20T09:22:31.676Z,27.00
2022-08-20T09:23:35.800Z,27.00
2022-08-20T09:24:40.359Z,27.06
2022-08-20T09:25:44.473Z,27.25
2022-08-20T09:26:50.700Z,27.25
2022-08-20T09:27:54.446Z,27.29
2022-08-20T09:28:58.849Z,27.30
2022-08-20T09:30:04.266Z,27.32
2022-08-20T09:31:08.412Z,27.32
2022-08-20T09:32:22.206Z,27.23
2022-08-20T09:33:26.348Z,27.19
2022-08-20T09:34:30.432Z,27.12
2022-08-20T09:35:34.544Z,27.12
2022-08-20T09:36:38.886Z,27.12
2022-08-20T09:37:43.014Z,27.06
2022-08-20T09:38:49.220Z,27.07
2022-08-20T09:39:52.982Z,27.10
2022-08-20T09:40:57.234Z,27.10
2022-08-20T09:42:10.143Z,26.97
2022-08-20T09:43:14.361Z,26.97
2022-08-20T09:44:18.531Z,27.08
2022-08-20T09:45:22.655Z,27.15
2022-08-20T09:46:30.030Z,27.15
2022-08-20T09:47:34.026Z,27.09
2022-08-20T09:48:38.003Z,26.96
2022-08-20T09:49:42.155Z,26.97
2022-08-20T09:50:50.490Z,26.97
2022-08-20T09:51:57.560Z,26.92
2022-08-20T09:53:03.581Z,26.99
2022-08-20T09:54:07.823Z,27.07
2022-08-20T09:55:23.807Z,27.07
2022-08-20T09:56:32.352Z,26.99
2022-08-20T09:57:36.382Z,27.02
2022-08-20T09:58:46.563Z,27.08
2022-08-20T09:59:55.486Z,27.15
2022-08-20T10:01:03.942Z,27.19
2022-08-20T10:02:09.671Z,27.19
2022-08-20T10:03:15.557Z,27.36
2022-08-20T10:04:19.761Z,27.42
2022-08-20T10:05:27.094Z,27.48
2022-08-20T10:06:37.734Z,27.48
2022-08-20T10:07:39.279Z,27.49
2022-08-20T10:08:45.290Z,27.48
2022-08-20T10:09:49.367Z,27.47
2022-08-20T10:10:53.550Z,27.50
2022-08-20T10:11:59.048Z,27.54
2022-08-20T10:13:04.890Z,27.54
2022-08-20T10:14:10.510Z,27.58
2022-08-20T10:15:15.916Z,27.58
2022-08-20T10:16:21.802Z,27.39
2022-08-20T10:17:25.923Z,27.39
2022-08-20T10:18:31.619Z,27.27
2022-08-20T10:19:38.928Z,27.27
2022-08-20T10:20:45.721Z,27.33
2022-08-20T10:21:52.921Z,27.38
2022-08-20T10:22:59.960Z,27.38
2022-08-20T10:24:05.914Z,27.28
2022-08-20T10:25:13.526Z,27.28
2022-08-20T10:26:17.772Z,27.22
2022-08-20T10:27:22.030Z,27.18
2022-08-20T10:28:26.095Z,27.18
2022-08-20T10:29:31.046Z,27.01
2022-08-20T10:30:36.103Z,26.83
2022-08-20T10:31:41.839Z,26.84
2022-08-20T10:32:53.089Z,26.83
2022-08-20T10:33:58.380Z,26.84
2022-08-20T10:35:03.883Z,26.87
2022-08-20T10:36:21.022Z,26.76
2022-08-20T10:37:27.027Z,26.84
2022-08-20T10:38:31.074Z,26.84
2022-08-20T10:39:38.008Z,26.84
2022-08-20T10:40:52.363Z,26.88
2022-08-20T10:41:53.684Z,26.98
2022-08-20T10:42:59.030Z,27.00
2022-08-20T10:44:09.648Z,27.00
2022-08-20T10:45:16.334Z,27.03
2022-08-20T10:47:39.868Z,27.24
2022-08-20T10:48:46.961Z,27.06
2022-08-20T10:49:53.335Z,26.95
2022-08-20T10:50:57.835Z,26.84
2022-08-20T10:52:01.925Z,26.84
2022-08-20T10:53:07.724Z,26.67
2022-08-20T10:54:15.765Z,26.36
2022-08-20T10:55:21.489Z,26.29
2022-08-20T10:56:29.575Z,26.29
2022-08-20T10:57:33.865Z,26.24
2022-08-20T10:59:04.848Z,26.20
2022-08-20T11:01:32.775Z,26.08
2022-08-20T11:01:55.176Z,26.15
2022-08-20T11:02:33.121Z,25.99
2022-08-20T11:03:37.265Z,25.99
2022-08-20T11:04:41.389Z,25.93
2022-08-20T11:05:45.754Z,25.78
2022-08-20T11:06:50.133Z,25.76
2022-08-20T11:07:56.890Z,25.76
2022-08-20T11:08:59.900Z,25.57
2022-08-20T11:10:05.469Z,25.57
2022-08-20T11:11:09.563Z,25.52
2022-08-20T11:12:16.824Z,25.46
2022-08-20T11:13:21.398Z,25.44
2022-08-20T11:14:26.976Z,25.44
2022-08-20T11:15:31.365Z,25.43
2022-08-20T11:16:36.341Z,25.39
2022-08-20T11:17:42.691Z,25.39
2022-08-20T11:18:47.942Z,25.47
2022-08-20T11:19:52.140Z,25.60
2022-08-20T11:20:57.610Z,25.60
2022-08-20T11:22:02.982Z,25.69
2022-08-20T11:23:07.003Z,25.79
2022-08-20T11:24:10.995Z,25.79
2022-08-20T11:25:16.730Z,25.92
2022-08-20T11:26:25.936Z,25.92
2022-08-20T11:27:32.915Z,26.06
2022-08-20T11:28:36.892Z,26.06
2022-08-20T11:29:40.937Z,26.10
2022-08-20T11:30:48.494Z,26.10
2022-08-20T11:31:53.816Z,26.15
2022-08-20T11:32:59.413Z,26.18
2022-08-20T11:34:03.444Z,26.22
2022-08-20T11:35:38.378Z,26.22
2022-08-20T11:36:14.714Z,26.27
2022-08-20T11:37:22.176Z,26.29
2022-08-20T11:38:26.172Z,26.35
2022-08-20T11:39:30.277Z,26.44
2022-08-20T11:40:35.154Z,26.44
2022-08-20T11:41:39.385Z,26.41
2022-08-20T11:43:10.978Z,26.45
2022-08-20T11:44:10.433Z,26.46
2022-08-20T11:44:59.019Z,26.46
2022-08-20T11:46:03.143Z,26.48
2022-08-20T11:47:08.665Z,26.46
2022-08-20T11:48:12.791Z,26.41
2022-08-20T11:49:16.861Z,26.44
2022-08-20T11:50:22.576Z,26.47
2022-08-20T11:51:26.616Z,26.47
2022-08-20T11:52:30.728Z,26.43
2022-08-20T11:53:36.291Z,26.38
2022-08-20T11:54:41.979Z,26.41
2022-08-20T11:55:47.084Z,26.45
2022-08-20T11:56:54.365Z,26.56
2022-08-20T11:58:00.154Z,26.66
2022-08-20T11:59:29.251Z,26.66
2022-08-20T12:00:21.979Z,26.67
2022-08-20T12:01:29.180Z,26.81
2022-08-20T12:02:33.273Z,26.88
2022-08-20T12:03:39.204Z,27.00
2022-08-20T12:04:43.248Z,26.97
2022-08-20T12:05:47.881Z,26.97
2022-08-20T12:06:51.974Z,27.10
2022-08-20T12:07:56.086Z,27.10
2022-08-20T12:09:00.707Z,27.15
2022-08-20T12:10:06.680Z,27.24
2022-08-20T12:11:10.730Z,27.24
2022-08-20T12:12:15.833Z,27.27
2022-08-20T12:13:19.917Z,27.33
2022-08-20T12:14:25.606Z,27.36
2022-08-20T12:15:29.677Z,27.41
2022-08-20T12:16:33.942Z,27.41
2022-08-20T12:17:38.467Z,27.47
2022-08-20T12:18:44.248Z,27.48
2022-08-20T12:19:48.801Z,27.48
2022-08-20T12:20:53.342Z,27.45
2022-08-20T12:21:57.322Z,27.39
2022-08-20T12:23:01.459Z,27.39
2022-08-20T12:24:05.742Z,27.32
2022-08-20T12:25:11.371Z,27.28
2022-08-20T12:26:15.925Z,27.20
2022-08-20T12:27:25.136Z,27.12
2022-08-20T12:28:34.565Z,27.06
2022-08-20T12:29:41.804Z,27.01
2022-08-20T12:30:49.505Z,26.97
2022-08-20T12:31:55.037Z,26.95
2022-08-20T12:33:01.048Z,26.95
2022-08-20T12:34:55.943Z,26.89
2022-08-20T12:35:19.667Z,26.88
2022-08-20T12:36:25.815Z,26.84
2022-08-20T12:37:32.623Z,26.78
2022-08-20T12:38:44.342Z,26.65
2022-08-20T12:39:51.367Z,26.57
2022-08-20T12:40:55.617Z,26.57
2022-08-20T12:42:03.467Z,26.47
2022-08-20T12:43:08.046Z,26.47
2022-08-20T12:44:13.247Z,26.49
2022-08-20T12:45:17.834Z,26.49
2022-08-20T12:46:23.607Z,26.56
2022-08-20T12:47:32.958Z,26.58
2022-08-20T12:48:37.131Z,26.57
2022-08-20T12:49:44.151Z,26.57
2022-08-20T12:50:49.774Z,26.61
2022-08-20T12:51:53.764Z,26.55
2022-08-20T12:53:01.212Z,26.55
2022-08-20T12:54:12.501Z,26.48
2022-08-20T12:55:22.204Z,26.51
2022-08-20T12:56:27.765Z,26.54
2022-08-20T12:57:37.453Z,26.62
2022-08-20T12:58:41.445Z,26.61
2022-08-20T12:59:47.075Z,26.61
2022-08-20T13:00:51.898Z,26.65
2022-08-20T13:01:56.423Z,26.69
2022-08-20T13:03:02.541Z,26.69
2022-08-20T13:04:06.672Z,26.73
2022-08-20T13:05:14.506Z,26.73
2022-08-20T13:06:19.648Z,26.67
2022-08-20T13:07:25.346Z,26.67
2022-08-20T13:08:31.224Z,26.67
2022-08-20T13:09:35.280Z,26.67
2022-08-20T13:10:43.971Z,26.63
2022-08-20T13:11:48.014Z,26.51
2022-08-20T13:12:52.359Z,26.51
2022-08-20T13:13:56.398Z,26.51
2022-08-20T13:15:00.436Z,26.34
2022-08-20T13:16:07.280Z,26.26
2022-08-20T13:17:11.595Z,26.19
2022-08-20T13:18:15.681Z,26.19
2022-08-20T13:19:19.653Z,26.19
2022-08-20T13:20:26.291Z,26.13
2022-08-20T13:21:32.083Z,26.05
2022-08-20T13:22:37.780Z,25.04
2022-08-20T13:23:41.838Z,25.93
2022-08-20T13:24:48.668Z,25.76
2022-08-20T13:25:54.415Z,25.80
2022-08-20T13:27:10.460Z,25.77
2022-08-20T13:28:14.463Z,25.77
2022-08-20T13:29:29.019Z,25.77
2022-08-20T13:30:36.223Z,25.72
2022-08-20T13:32:11.135Z,25.69
2022-08-20T13:33:00.101Z,25.69
2022-08-20T13:34:04.262Z,25.61
2022-08-20T13:35:14.639Z,25.48
2022-08-20T13:36:21.060Z,25.50
2022-08-20T13:37:43.806Z,25.51
2022-08-20T13:39:10.404Z,25.49
2022-08-20T13:40:07.407Z,25.54
2022-08-20T13:41:28.606Z,25.51
2022-08-20T13:42:32.450Z,25.51
2022-08-20T13:43:36.492Z,25.44
2022-08-20T13:44:42.085Z,25.45
2022-08-20T13:45:50.586Z,25.45
2022-08-20T13:46:57.492Z,25.45
2022-08-20T13:48:01.465Z,25.49
2022-08-20T13:49:05.517Z,25.49
2022-08-20T13:50:15.840Z,25.50
2022-08-20T13:51:21.632Z,25.45
2022-08-20T13:52:27.811Z,25.45
2022-08-20T13:53:31.793Z,25.39
2022-08-20T13:54:40.654Z,25.39
2022-08-20T13:55:47.246Z,25.43
2022-08-20T13:56:51.574Z,25.50
2022-08-20T13:57:56.814Z,25.50
2022-08-20T13:59:00.878Z,25.45
2022-08-20T14:00:07.737Z,25.43
2022-08-20T14:01:12.122Z,25.41
2022-08-20T14:02:17.782Z,25.48
2022-08-20T14:03:25.441Z,25.47
2022-08-20T14:04:29.061Z,25.45
2022-08-20T14:05:33.784Z,25.45
2022-08-20T14:06:39.135Z,25.47
2022-08-20T14:07:47.875Z,25.47
2022-08-20T14:08:54.598Z,25.47
2022-08-20T14:10:01.614Z,25.42
2022-08-20T14:11:05.728Z,25.42
2022-08-20T14:12:10.728Z,25.38
2022-08-20T14:13:17.303Z,25.38
2022-08-20T14:14:22.910Z,25.31
2022-08-20T14:15:27.226Z,25.29
2022-08-20T14:16:35.790Z,25.29
2022-08-20T14:17:39.951Z,25.30
2022-08-20T14:18:44.067Z,25.33
2022-08-20T14:20:00.716Z,25.35
2022-08-20T14:20:58.168Z,25.35
2022-08-20T14:22:02.321Z,25.28
2022-08-20T14:23:07.860Z,25.28
2022-08-20T14:24:11.993Z,25.27
2022-08-20T14:25:18.933Z,25.27
2022-08-20T14:26:24.994Z,25.32
2022-08-20T14:27:31.807Z,25.36
2022-08-20T14:28:35.846Z,25.36
2022-08-20T14:29:42.306Z,25.29
2022-08-20T14:30:53.327Z,25.28
2022-08-20T14:31:53.728Z,25.26
2022-08-20T14:33:01.803Z,25.26
2022-08-20T14:34:05.924Z,25.22
2022-08-20T14:35:11.022Z,25.15
2022-08-20T14:36:17.631Z,25.15
2022-08-20T14:37:26.498Z,25.20
2022-08-20T14:38:34.835Z,25.22
2022-08-20T14:39:44.872Z,25.20
2022-08-20T14:40:50.252Z,25.20
2022-08-20T14:41:55.886Z,25.15
2022-08-20T14:43:02.664Z,25.14
2022-08-20T14:44:07.846Z,25.06
2022-08-20T14:45:13.859Z,25.06
2022-08-20T14:46:20.597Z,25.05
2022-08-20T14:47:28.051Z,25.08
2022-08-20T14:48:32.023Z,25.08